Time;durP1;ratioP1;P1;durP2;ratioP2;P2;SDS_P1;SDS_P2;PMS_P1;PMS_P2;Temp;Humidity;BMP_temperature;BMP_pressure;BME280_temperature;BME280_humidity;BME280_pressure;Samples;Min_cycle;Max_cycle;Signal;HPM_P1;HPM_P2
2022/11/18 00:00:05;;;;;;;20.03;8.40;;;10.90;91.60;;;;;;5063872;28;20203;-76
2022/11/18 00:02:35;;;;;;;13.20;8.33;;;10.90;91.70;;;;;;5065928;28;20248;-76
2022/11/18 00:05:04;;;;;;;17.80;9.03;;;10.90;91.70;;;;;;5065270;28;20225;-76
2022/11/18 00:07:32;;;;;;;21.80;8.70;;;10.80;91.80;;;;;;5069767;28;20206;-76
2022/11/18 00:10:01;;;;;;;18.73;9.47;;;10.80;91.80;;;;;;5067700;28;20194;-76
2022/11/18 00:15:14;;;;;;;20.63;10.47;;;10.80;91.90;;;;;;5062844;28;20542;-77
2022/11/18 00:17:44;;;;;;;19.47;10.20;;;10.80;92.00;;;;;;5064778;28;20205;-76
2022/11/18 00:20:12;;;;;;;21.47;9.20;;;10.70;92.50;;;;;;5069256;28;20217;-75
2022/11/18 00:22:41;;;;;;;14.47;7.63;;;10.70;92.10;;;;;;5068363;28;20205;-75
2022/11/18 00:25:09;;;;;;;15.87;8.43;;;10.70;92.10;;;;;;5064038;28;20297;-76
2022/11/18 00:27:37;;;;;;;18.20;8.73;;;10.70;92.10;;;;;;5065508;28;20210;-76
2022/11/18 00:30:07;;;;;;;13.97;7.67;;;10.70;92.10;;;;;;5069228;28;20740;-76
2022/11/18 00:32:35;;;;;;;17.13;8.47;;;10.70;92.10;;;;;;5066003;28;20324;-76
2022/11/18 00:35:06;;;;;;;12.00;6.77;;;10.70;92.10;;;;;;5062416;28;20248;-76
2022/11/18 00:37:34;;;;;;;14.53;7.37;;;10.70;92.10;;;;;;5061911;28;20234;-76
2022/11/18 00:40:03;;;;;;;13.53;7.17;;;10.70;92.10;;;;;;5066770;28;20203;-76
2022/11/18 00:45:18;;;;;;;15.80;7.20;;;10.70;92.00;;;;;;5066459;28;20244;-76
2022/11/18 00:47:46;;;;;;;13.67;7.53;;;10.70;91.90;;;;;;5060203;28;20195;-75
2022/11/18 00:50:16;;;;;;;14.97;7.70;;;10.70;91.80;;;;;;5063238;28;20203;-77
2022/11/18 00:52:44;;;;;;;14.93;7.67;;;10.70;91.80;;;;;;5068369;28;20660;-76
2022/11/18 00:55:13;;;;;;;13.30;7.00;;;10.70;91.80;;;;;;5061295;28;20199;-75
2022/11/18 00:57:41;;;;;;;13.97;7.43;;;10.70;91.80;;;;;;5067252;28;20589;-76
2022/11/18 01:00:10;;;;;;;14.50;7.03;;;10.70;91.80;;;;;;5062835;28;20725;-76
2022/11/18 01:02:39;;;;;;;12.50;6.80;;;10.70;91.70;;;;;;5060900;28;20203;-76
2022/11/18 01:05:07;;;;;;;13.27;6.90;;;10.70;91.70;;;;;;5063040;28;20656;-76
2022/11/18 01:07:37;;;;;;;15.33;8.17;;;10.70;91.60;;;;;;5064275;28;20721;-76
2022/11/18 01:10:06;;;;;;;12.57;7.20;;;10.60;91.50;;;;;;5060862;28;20194;-76
2022/11/18 01:15:21;;;;;;;16.43;7.23;;;10.60;91.40;;;;;;5060729;28;20193;-77
2022/11/18 01:17:50;;;;;;;14.93;7.67;;;10.60;91.30;;;;;;5066898;28;20253;-76
2022/11/18 01:20:18;;;;;;;15.37;7.23;;;10.60;91.20;;;;;;5067833;28;20190;-75
2022/11/18 01:22:48;;;;;;;14.13;6.63;;;10.60;91.20;;;;;;5067278;28;20202;-76
2022/11/18 01:25:16;;;;;;;13.93;7.93;;;10.50;91.20;;;;;;5060869;28;20214;-76
2022/11/18 01:27:44;;;;;;;23.20;8.63;;;10.50;91.10;;;;;;5067526;28;20257;-76
2022/11/18 01:30:15;;;;;;;14.37;7.73;;;10.50;91.00;;;;;;5063536;28;20280;-76
2022/11/18 01:32:44;;;;;;;13.20;7.17;;;10.50;90.90;;;;;;5063183;28;20198;-76
2022/11/18 01:35:16;;;;;;;16.27;7.80;;;10.40;90.80;;;;;;5060909;28;20561;-78
2022/11/18 01:37:45;;;;;;;12.07;6.43;;;10.40;90.80;;;;;;5058379;28;20224;-76
2022/11/18 01:40:15;;;;;;;14.63;7.07;;;10.30;90.80;;;;;;5062836;28;20206;-77
2022/11/18 01:42:43;;;;;;;15.25;9.05;;;10.30;90.90;;;;;;5064441;28;20451;-75
2022/11/18 01:45:27;;;;;;;19.27;7.77;;;10.30;91.10;;;;;;5067175;28;20219;-76
2022/11/18 01:48:00;;;;;;;12.03;7.10;;;10.20;91.10;;;;;;5069575;28;20199;-78
2022/11/18 01:50:29;;;;;;;16.00;8.97;;;10.20;91.00;;;;;;5068858;28;20562;-75
2022/11/18 01:53:03;;;;;;;12.53;7.00;;;10.20;91.00;;;;;;5070158;28;20210;-76
2022/11/18 01:55:35;;;;;;;15.93;8.65;;;10.20;91.00;;;;;;5072127;28;20440;-76
2022/11/18 01:58:07;;;;;;;13.97;8.13;;;10.20;91.20;;;;;;5067558;28;20724;-75
2022/11/18 02:00:36;;;;;;;14.07;7.50;;;10.20;91.10;;;;;;5068983;28;20206;-75
2022/11/18 02:03:04;;;;;;;17.87;7.30;;;10.20;91.00;;;;;;5067581;28;20256;-75
2022/11/18 02:05:35;;;;;;;14.20;7.80;;;10.20;91.00;;;;;;5068717;28;20206;-75
2022/11/18 02:08:06;;;;;;;15.10;7.70;;;10.20;91.00;;;;;;5069397;28;20686;-76
2022/11/18 02:10:35;;;;;;;14.37;8.07;;;10.20;90.90;;;;;;5068693;28;20603;-75
2022/11/18 02:13:04;;;;;;;17.07;8.47;;;10.10;90.70;;;;;;5064794;28;20568;-76
2022/11/18 02:15:45;;;;;;;14.77;7.50;;;10.10;90.70;;;;;;5064838;28;20203;-75
2022/11/18 02:18:25;;;;;;;14.80;7.90;;;10.10;90.70;;;;;;5067443;28;20198;-75
2022/11/18 02:21:02;;;;;;;13.43;7.23;;;10.10;90.70;;;;;;5071252;28;20202;-75
2022/11/18 02:24:14;;;;;;;14.20;8.00;;;10.10;90.70;;;;;;5065797;28;20201;-76
2022/11/18 02:27:15;;;;;;;12.70;6.77;;;10.10;90.70;;;;;;5068323;28;20213;-76
2022/11/18 02:29:50;;;;;;;17.13;7.77;;;10.10;90.70;;;;;;5066347;28;20198;-75
2022/11/18 02:32:23;;;;;;;13.60;6.63;;;10.10;90.70;;;;;;5065792;28;20194;-76
2022/11/18 02:34:59;;;;;;;14.20;7.47;;;10.00;90.70;;;;;;5062878;28;20199;-76
2022/11/18 02:37:34;;;;;;;15.07;6.53;;;10.10;90.80;;;;;;5065016;28;20233;-75
2022/11/18 02:40:07;;;;;;;13.13;7.90;;;10.10;90.90;;;;;;5066362;28;20554;-75
2022/11/18 02:42:37;;;;;;;13.77;7.50;;;10.10;91.00;;;;;;5065098;28;20226;-77
2022/11/18 02:45:12;;;;;;;15.43;7.53;;;10.10;91.00;;;;;;5064743;28;20226;-75
2022/11/18 02:47:44;;;;;;;16.33;7.53;;;10.10;91.10;;;;;;5069245;28;20201;-76
2022/11/18 02:50:17;;;;;;;13.60;7.50;;;10.20;91.10;;;;;;5069876;28;20194;-76
2022/11/18 02:52:48;;;;;;;15.43;8.80;;;10.20;91.20;;;;;;5069899;28;20205;-76
2022/11/18 02:55:17;;;;;;;16.00;9.13;;;10.20;91.30;;;;;;5063971;28;20240;-76
2022/11/18 02:57:47;;;;;;;17.57;9.33;;;10.30;91.40;;;;;;5067024;28;20304;-76
2022/11/18 03:00:18;;;;;;;16.27;8.17;;;10.30;91.40;;;;;;5064259;28;20260;-75
2022/11/18 03:02:47;;;;;;;16.70;9.20;;;10.30;91.50;;;;;;5067188;28;20544;-76
2022/11/18 03:05:21;;;;;;;13.03;7.00;;;10.40;91.50;;;;;;5061470;28;20669;-75
2022/11/18 03:07:55;;;;;;;16.33;8.07;;;10.40;91.60;;;;;;5065934;28;20194;-76
2022/11/18 03:10:29;;;;;;;14.00;7.77;;;10.40;91.70;;;;;;5066724;28;20252;-76
2022/11/18 03:13:14;;;;;;;15.13;7.90;;;10.50;91.70;;;;;;5063297;28;20257;-78
2022/11/18 03:16:14;;;;;;;13.63;8.03;;;10.40;91.70;;;;;;5060142;28;20656;-81
2022/11/18 03:18:50;;;;;;;18.60;7.23;;;10.50;91.80;;;;;;5063495;28;20194;-80
2022/11/18 03:21:25;;;;;;;15.00;8.00;;;10.50;91.80;;;;;;5062692;28;20186;-75
2022/11/18 03:23:59;;;;;;;14.33;8.47;;;10.50;91.80;;;;;;5065795;28;20205;-76
2022/11/18 03:26:31;;;;;;;14.17;7.27;;;10.60;91.90;;;;;;5062647;28;20613;-75
2022/11/18 03:29:04;;;;;;;15.10;8.07;;;10.60;91.90;;;;;;5062140;28;20225;-76
2022/11/18 03:31:40;;;;;;;14.50;8.10;;;10.70;92.00;;;;;;5067048;28;20622;-76
2022/11/18 03:34:12;;;;;;;14.90;7.83;;;10.60;92.00;;;;;;5064199;28;20206;-76
2022/11/18 03:36:45;;;;;;;13.60;7.57;;;10.70;92.00;;;;;;5065473;28;20603;-76
2022/11/18 03:39:21;;;;;;;16.40;8.87;;;10.80;92.10;;;;;;5061005;28;20217;-76
2022/11/18 03:41:54;;;;;;;18.53;8.80;;;10.80;92.10;;;;;;5069384;28;20195;-76
2022/11/18 03:44:27;;;;;;;18.10;8.77;;;10.80;92.10;;;;;;5065492;28;20241;-77
2022/11/18 03:47:02;;;;;;;15.57;8.97;;;10.80;92.10;;;;;;5069455;28;20238;-76
2022/11/18 03:49:42;;;;;;;19.60;9.00;;;10.90;92.20;;;;;;5065735;28;20191;-76
2022/11/18 03:52:15;;;;;;;21.17;8.47;;;10.90;92.30;;;;;;5066792;28;20232;-76
2022/11/18 03:54:47;;;;;;;19.60;7.83;;;11.00;92.40;;;;;;5067577;28;20202;-76
2022/11/18 03:57:21;;;;;;;15.73;6.43;;;11.00;92.40;;;;;;5065602;28;20194;-76
2022/11/18 03:59:54;;;;;;;16.10;6.73;;;11.00;92.50;;;;;;5063574;28;20652;-76
2022/11/18 04:02:25;;;;;;;14.17;6.10;;;11.10;92.50;;;;;;5061927;28;20199;-76
2022/11/18 04:04:55;;;;;;;15.33;6.93;;;11.10;92.50;;;;;;5065249;28;20598;-76
2022/11/18 04:07:30;;;;;;;16.37;7.33;;;11.10;92.50;;;;;;5064301;28;20206;-76
2022/11/18 04:10:04;;;;;;;14.03;5.30;;;11.20;92.50;;;;;;5063047;28;20242;-76
2022/11/18 04:12:35;;;;;;;13.57;5.40;;;11.20;92.60;;;;;;5063145;28;20210;-76
2022/11/18 04:15:05;;;;;;;10.87;5.07;;;11.20;92.50;;;;;;5065320;28;20576;-77
2022/11/18 04:17:34;;;;;;;12.33;5.50;;;11.20;92.50;;;;;;5057953;28;20215;-76
2022/11/18 04:20:03;;;;;;;12.33;5.30;;;11.30;92.50;;;;;;5063806;28;20199;-76
2022/11/18 04:22:31;;;;;;;11.77;5.67;;;11.30;92.40;;;;;;5064460;28;20564;-78
2022/11/18 04:24:59;;;;;;;11.57;5.27;;;11.40;92.40;;;;;;5065283;28;20202;-76
2022/11/18 04:27:27;;;;;;;11.07;4.37;;;11.40;92.30;;;;;;5068556;28;20229;-76
2022/11/18 04:29:56;;;;;;;10.07;4.40;;;11.40;92.30;;;;;;5064142;28;20199;-76
2022/11/18 04:32:24;;;;;;;11.03;4.23;;;11.40;92.20;;;;;;5065534;28;20244;-75
2022/11/18 04:34:54;;;;;;;8.33;4.40;;;11.30;92.10;;;;;;5068296;28;20202;-77
2022/11/18 04:37:22;;;;;;;8.13;4.30;;;11.20;92.00;;;;;;5062470;28;20291;-77
2022/11/18 04:39:51;;;;;;;11.07;4.70;;;11.20;92.00;;;;;;5060052;28;20674;-76
2022/11/18 04:42:20;;;;;;;9.73;4.90;;;11.20;92.00;;;;;;5061832;28;20213;-77
2022/11/18 04:44:48;;;;;;;11.90;5.13;;;11.10;92.10;;;;;;5059820;28;20252;-76
2022/11/18 04:47:17;;;;;;;13.23;5.70;;;11.10;92.10;;;;;;5062920;28;20237;-78
2022/11/18 04:49:45;;;;;;;11.80;5.30;;;11.10;92.20;;;;;;5061224;28;20202;-77
2022/11/18 04:52:16;;;;;;;14.27;6.30;;;11.10;92.20;;;;;;5058409;28;20202;-77
2022/11/18 04:54:45;;;;;;;12.83;6.10;;;11.10;92.20;;;;;;5060641;28;20199;-77
2022/11/18 04:57:14;;;;;;;12.67;6.13;;;11.00;92.20;;;;;;5062531;28;20636;-76
2022/11/18 04:59:42;;;;;;;14.77;6.27;;;11.10;92.30;;;;;;5063044;28;20261;-75
2022/11/18 05:02:10;;;;;;;10.93;5.57;;;11.10;92.30;;;;;;5064449;28;20198;-75
2022/11/18 05:04:39;;;;;;;16.63;5.93;;;11.10;92.30;;;;;;5056896;28;20207;-75
2022/11/18 05:07:07;;;;;;;14.47;5.97;;;11.10;92.30;;;;;;5065699;28;20572;-76
2022/11/18 05:09:37;;;;;;;17.53;6.33;;;11.10;92.30;;;;;;5064403;28;20236;-76
2022/11/18 05:14:52;;;;;;;14.87;6.03;;;11.10;92.30;;;;;;5060354;28;20209;-81
2022/11/18 05:17:21;;;;;;;16.10;5.33;;;11.20;92.30;;;;;;5060500;28;20626;-79
2022/11/18 05:19:53;;;;;;;11.63;5.27;;;11.20;92.30;;;;;;5061145;28;20316;-81
2022/11/18 05:22:22;;;;;;;14.13;5.63;;;11.20;92.30;;;;;;5064086;28;20190;-79
2022/11/18 05:24:52;;;;;;;13.00;5.67;;;11.20;92.30;;;;;;5069468;28;20227;-78
2022/11/18 05:27:23;;;;;;;12.80;6.10;;;11.20;92.20;;;;;;5070933;28;20246;-79
2022/11/18 05:29:51;;;;;;;14.73;6.60;;;11.20;92.20;;;;;;5065097;28;20190;-79
2022/11/18 05:32:20;;;;;;;10.17;5.80;;;11.20;92.20;;;;;;5069324;28;20248;-78
2022/11/18 05:34:48;;;;;;;12.17;5.43;;;11.20;92.10;;;;;;5065152;28;20642;-78
2022/11/18 05:37:17;;;;;;;11.17;5.63;;;11.20;92.20;;;;;;5067200;28;20325;-79
2022/11/18 05:39:45;;;;;;;12.13;5.70;;;11.20;92.20;;;;;;5072681;28;20723;-78
2022/11/18 05:45:00;;;;;;;16.37;6.27;;;11.30;92.30;;;;;;5064741;28;20199;-78
2022/11/18 05:47:58;;;;;;;15.43;6.10;;;11.30;92.30;;;;;;5064082;28;20256;-79
2022/11/18 05:50:17;;;;;;;15.90;6.50;;;11.30;92.20;;;;;;5068410;28;20651;-79
2022/11/18 05:52:48;;;;;;;14.37;5.97;;;11.30;92.10;;;;;;5067712;28;20199;-78
2022/11/18 05:55:18;;;;;;;14.40;6.13;;;11.30;92.10;;;;;;5072173;28;20206;-79
2022/11/18 05:57:47;;;;;;;17.23;7.03;;;11.30;92.10;;;;;;5070371;28;20197;-80
2022/11/18 06:00:19;;;;;;;13.17;6.30;;;11.30;92.10;;;;;;5064465;28;20202;-79
2022/11/18 06:02:49;;;;;;;12.37;5.30;;;11.30;92.20;;;;;;5065742;28;20203;-77
2022/11/18 06:05:20;;;;;;;16.77;6.87;;;11.40;92.10;;;;;;5070781;28;20677;-78
2022/11/18 06:07:48;;;;;;;19.73;8.33;;;11.40;92.20;;;;;;5073121;28;20206;-78
2022/11/18 06:10:23;;;;;;;17.80;8.43;;;11.40;92.10;;;;;;5072617;28;20559;-78
2022/11/18 06:12:55;;;;;;;18.30;8.27;;;11.40;92.10;;;;;;5070354;28;20194;-78
2022/11/18 06:15:27;;;;;;;16.93;7.70;;;11.40;92.10;;;;;;5074040;28;20209;-78
2022/11/18 06:18:00;;;;;;;28.93;9.93;;;11.50;92.10;;;;;;5073689;28;20183;-78
2022/11/18 06:20:28;;;;;;;29.93;12.00;;;11.40;92.00;;;;;;5074422;28;20285;-77
2022/11/18 06:22:59;;;;;;;21.77;9.87;;;11.40;92.00;;;;;;5072291;28;20194;-79
2022/11/18 06:25:29;;;;;;;18.23;7.33;;;11.50;92.00;;;;;;5067745;28;20197;-77
2022/11/18 06:28:01;;;;;;;13.20;6.18;;;11.50;92.00;;;;;;5068266;28;20444;-78
2022/11/18 06:30:30;;;;;;;9.13;4.27;;;11.50;92.00;;;;;;5066259;28;20199;-77
2022/11/18 06:32:58;;;;;;;13.00;5.53;;;11.60;92.00;;;;;;5070862;28;20195;-78
2022/11/18 06:35:26;;;;;;;11.63;4.87;;;11.60;91.90;;;;;;5061294;28;20253;-78
2022/11/18 06:37:55;;;;;;;15.13;5.87;;;11.60;91.80;;;;;;5072773;28;20194;-77
2022/11/18 06:40:23;;;;;;;11.20;5.00;;;11.60;91.60;;;;;;5072992;28;20195;-79
2022/11/18 06:45:38;;;;;;;12.60;5.87;;;11.70;91.70;;;;;;5075027;28;20477;-79
2022/11/18 06:48:06;;;;;;;10.53;4.93;;;11.70;91.60;;;;;;5073629;28;20218;-80
2022/11/18 06:50:34;;;;;;;12.83;5.57;;;11.80;91.60;;;;;;5070965;28;20276;-78
2022/11/18 06:53:02;;;;;;;12.90;5.57;;;11.80;91.60;;;;;;5063519;28;20199;-79
2022/11/18 06:55:31;;;;;;;11.23;5.07;;;11.90;91.60;;;;;;5071283;28;20198;-79
2022/11/18 06:57:59;;;;;;;10.10;5.07;;;11.90;91.50;;;;;;5065683;28;20195;-77
2022/11/18 07:00:27;;;;;;;14.73;5.40;;;11.90;91.40;;;;;;5065236;28;20210;-78
2022/11/18 07:02:57;;;;;;;9.52;4.75;;;12.00;91.30;;;;;;5062833;28;20536;-79
2022/11/18 07:05:26;;;;;;;11.03;4.80;;;12.00;91.50;;;;;;5072476;28;20199;-78
2022/11/18 07:07:54;;;;;;;9.10;4.67;;;12.00;90.90;;;;;;5070087;28;20273;-79
2022/11/18 07:10:22;;;;;;;10.73;4.93;;;12.10;91.10;;;;;;5069857;28;20205;-78
2022/11/18 07:12:51;;;;;;;9.77;5.17;;;12.10;91.00;;;;;;5069632;28;20229;-78
2022/11/18 07:15:19;;;;;;;9.90;5.00;;;12.20;90.90;;;;;;5066543;28;20199;-78
2022/11/18 07:17:47;;;;;;;7.70;4.40;;;12.20;90.70;;;;;;5067325;28;20642;-76
2022/11/18 07:20:17;;;;;;;9.17;5.27;;;12.30;90.70;;;;;;5069646;28;20198;-78
2022/11/18 07:22:46;;;;;;;12.10;5.00;;;12.30;90.60;;;;;;5065929;28;20678;-79
2022/11/18 07:25:14;;;;;;;13.37;5.37;;;12.30;90.40;;;;;;5063379;28;20194;-80
2022/11/18 07:27:43;;;;;;;13.33;5.07;;;12.40;90.50;;;;;;5065316;28;20214;-78
2022/11/18 07:30:12;;;;;;;12.33;4.93;;;12.40;90.50;;;;;;5068017;28;20198;-78
2022/11/18 07:32:40;;;;;;;14.40;5.60;;;12.50;90.50;;;;;;5071112;28;20191;-80
2022/11/18 07:35:09;;;;;;;12.93;6.00;;;12.50;90.20;;;;;;5073715;28;20194;-78
2022/11/18 07:37:39;;;;;;;12.00;5.77;;;12.50;90.10;;;;;;5067695;28;20221;-78
2022/11/18 07:40:09;;;;;;;12.43;5.30;;;12.60;90.00;;;;;;5062812;28;20642;-79
2022/11/18 07:42:42;;;;;;;10.07;4.77;;;12.60;89.60;;;;;;5065852;28;20598;-78
2022/11/18 07:45:12;;;;;;;10.53;5.30;;;12.60;89.30;;;;;;5063666;28;20598;-79
2022/11/18 07:47:40;;;;;;;11.67;5.53;;;12.60;89.30;;;;;;5065110;28;20226;-79
2022/11/18 07:50:09;;;;;;;10.47;5.07;;;12.70;89.10;;;;;;5069290;28;20202;-79
2022/11/18 07:52:38;;;;;;;14.23;6.13;;;12.70;89.10;;;;;;5070230;28;20205;-79
2022/11/18 07:55:07;;;;;;;17.53;6.53;;;12.70;89.10;;;;;;5068721;28;20627;-79
2022/11/18 07:57:36;;;;;;;16.10;6.07;;;12.70;89.20;;;;;;5068748;28;20190;-80
2022/11/18 08:00:05;;;;;;;12.07;5.70;;;12.80;89.40;;;;;;5068711;28;20202;-79
2022/11/18 08:02:33;;;;;;;13.67;5.07;;;12.80;89.30;;;;;;5067946;28;20221;-78
2022/11/18 08:05:01;;;;;;;11.10;5.90;;;12.80;89.40;;;;;;5065244;28;20230;-79
2022/11/18 08:07:30;;;;;;;12.27;5.70;;;12.90;89.50;;;;;;5069445;28;20191;-79
2022/11/18 08:10:02;;;;;;;12.53;5.93;;;12.90;89.00;;;;;;5066939;28;20221;-79
2022/11/18 08:12:30;;;;;;;11.30;5.30;;;12.90;88.80;;;;;;5069324;28;20190;-78
2022/11/18 08:14:59;;;;;;;11.67;5.40;;;12.90;88.10;;;;;;5071177;28;20233;-79
2022/11/18 08:17:27;;;;;;;10.70;5.93;;;13.00;88.00;;;;;;5061617;28;20201;-79
2022/11/18 08:19:55;;;;;;;11.53;5.87;;;12.90;87.50;;;;;;5067768;28;20226;-78
2022/11/18 08:22:24;;;;;;;13.13;6.20;;;13.00;88.60;;;;;;5062238;28;20198;-77
2022/11/18 08:24:52;;;;;;;12.63;5.47;;;13.00;87.70;;;;;;5067265;28;20195;-78
2022/11/18 08:27:24;;;;;;;12.60;6.33;;;13.10;87.80;;;;;;5068454;28;20202;-79
2022/11/18 08:29:52;;;;;;;16.40;6.27;;;13.10;87.70;;;;;;5064042;28;20650;-79
2022/11/18 08:32:20;;;;;;;18.03;6.17;;;13.10;87.80;;;;;;5063519;28;20208;-79
2022/11/18 08:34:50;;;;;;;16.23;7.17;;;13.20;88.10;;;;;;5068794;28;20667;-80
2022/11/18 08:37:18;;;;;;;13.63;6.63;;;13.20;87.40;;;;;;5065379;28;20291;-79
2022/11/18 08:39:47;;;;;;;19.73;7.10;;;13.20;87.40;;;;;;5072514;28;20194;-80
2022/11/18 08:42:15;;;;;;;12.50;6.00;;;13.20;87.10;;;;;;5068633;28;20264;-79
2022/11/18 08:44:44;;;;;;;12.73;6.23;;;13.30;87.20;;;;;;5063677;28;20202;-80
2022/11/18 08:47:13;;;;;;;12.53;6.47;;;13.30;87.10;;;;;;5069642;28;20197;-79
2022/11/18 08:49:42;;;;;;;11.40;6.13;;;13.30;88.20;;;;;;5069566;28;20631;-79
2022/11/18 08:52:10;;;;;;;14.57;6.67;;;13.30;87.60;;;;;;5063473;28;20206;-80
2022/11/18 08:54:39;;;;;;;14.87;6.90;;;13.40;87.70;;;;;;5067981;28;20190;-79
2022/11/18 08:57:07;;;;;;;18.50;7.13;;;13.40;87.80;;;;;;5066043;28;20207;-80
2022/11/18 08:59:35;;;;;;;15.10;6.73;;;13.40;87.50;;;;;;5071982;28;20675;-79
2022/11/18 09:02:05;;;;;;;14.97;6.53;;;13.50;87.60;;;;;;5065369;28;20244;-80
2022/11/18 09:04:34;;;;;;;15.67;6.87;;;13.60;87.60;;;;;;5068015;28;20233;-81
2022/11/18 09:07:02;;;;;;;14.07;7.57;;;13.70;87.30;;;;;;5067142;28;20217;-80
2022/11/18 09:09:31;;;;;;;14.00;6.57;;;13.80;87.20;;;;;;5067959;28;20645;-79
2022/11/18 09:11:59;;;;;;;15.70;7.03;;;13.90;87.20;;;;;;5066066;28;20206;-79
2022/11/18 09:14:28;;;;;;;13.47;6.90;;;14.00;87.00;;;;;;5064591;28;20545;-78
2022/11/18 09:17:17;;;;;;;13.93;7.05;;;14.10;87.10;;;;;;5064841;28;20459;-81
2022/11/18 09:19:46;;;;;;;15.17;6.90;;;14.20;86.60;;;;;;5071677;28;20240;-81
2022/11/18 09:22:15;;;;;;;16.07;7.30;;;14.30;86.30;;;;;;5058082;28;20637;-80
2022/11/18 09:24:44;;;;;;;14.77;7.10;;;14.40;85.70;;;;;;5068736;28;20198;-80
2022/11/18 09:27:12;;;;;;;14.73;7.30;;;14.40;85.40;;;;;;5070521;28;20198;-80
2022/11/18 09:29:44;;;;;;;14.90;8.47;;;14.50;85.50;;;;;;5061749;28;20220;-81
2022/11/18 09:32:13;;;;;;;15.27;7.60;;;14.50;85.60;;;;;;5068216;28;20772;-79
2022/11/18 09:34:42;;;;;;;12.83;7.33;;;14.50;85.30;;;;;;5066560;28;20247;-81
2022/11/18 09:37:11;;;;;;;16.63;7.20;;;14.60;85.30;;;;;;5070835;28;20287;-80
2022/11/18 09:39:40;;;;;;;12.93;6.43;;;14.70;85.20;;;;;;5064419;28;20198;-79
2022/11/18 09:42:38;;;;;;;19.03;7.70;;;14.70;85.30;;;;;;5067210;28;20480;-81
2022/11/18 09:45:16;;;;;;;18.87;7.70;;;14.80;85.20;;;;;;5067425;28;20202;-80
2022/11/18 09:47:51;;;;;;;15.17;7.60;;;14.80;84.80;;;;;;5068145;28;20205;-79
2022/11/18 09:50:22;;;;;;;14.90;8.13;;;14.90;84.90;;;;;;5062221;28;20221;-80
2022/11/18 09:53:18;;;;;;;15.03;7.37;;;15.00;84.70;;;;;;5066867;28;20278;-80
2022/11/18 09:55:52;;;;;;;18.23;7.97;;;15.10;84.60;;;;;;5066452;28;20204;-78
2022/11/18 09:58:27;;;;;;;15.53;8.30;;;15.20;83.90;;;;;;5065494;28;20201;-78
2022/11/18 10:00:56;;;;;;;20.87;8.13;;;15.20;83.50;;;;;;5065672;28;20198;-78
2022/11/18 10:03:28;;;;;;;13.57;7.87;;;15.30;83.20;;;;;;5065001;28;20190;-79
2022/11/18 10:06:03;;;;;;;18.87;8.30;;;15.30;80.90;;;;;;5060001;28;20225;-80
2022/11/18 10:08:36;;;;;;;16.03;7.53;;;15.30;81.20;;;;;;5066749;28;20740;-78
2022/11/18 10:11:11;;;;;;;18.60;8.23;;;15.40;81.60;;;;;;5064709;28;20199;-80
2022/11/18 10:13:51;;;;;;;14.43;7.97;;;15.50;82.00;;;;;;5070246;28;20728;-79
2022/11/18 10:16:42;;;;;;;20.40;9.43;;;15.60;82.00;;;;;;5062086;28;20237;-80
2022/11/18 10:19:25;;;;;;;17.93;8.27;;;15.60;80.20;;;;;;5071945;28;20217;-79
2022/11/18 10:22:10;;;;;;;16.57;8.60;;;15.70;79.50;;;;;;5073142;28;20647;-78
2022/11/18 10:24:51;;;;;;;17.70;8.13;;;15.70;79.10;;;;;;5068988;28;20773;-80
2022/11/18 10:27:19;;;;;;;17.77;9.37;;;15.70;79.10;;;;;;5068450;28;20191;-78
2022/11/18 10:29:53;;;;;;;16.93;8.60;;;15.80;79.60;;;;;;5070338;28;20218;-79
2022/11/18 10:32:22;;;;;;;14.77;7.93;;;15.80;79.20;;;;;;5069354;28;20201;-79
2022/11/18 10:34:52;;;;;;;15.00;8.77;;;15.90;79.20;;;;;;5072149;28;20199;-79
2022/11/18 10:37:28;;;;;;;15.50;8.43;;;15.90;78.20;;;;;;5069189;28;20317;-79
2022/11/18 10:40:25;;;;;;;16.03;8.57;;;15.90;78.10;;;;;;5062912;28;20198;-79
2022/11/18 10:42:54;;;;;;;17.70;8.67;;;16.00;78.00;;;;;;5066632;28;20240;-80
2022/11/18 10:45:27;;;;;;;16.60;8.97;;;15.90;77.30;;;;;;5067144;28;20252;-78
2022/11/18 10:48:01;;;;;;;16.43;9.13;;;16.00;77.90;;;;;;5068076;28;20190;-79
2022/11/18 10:50:33;;;;;;;15.70;8.60;;;16.00;78.00;;;;;;5062746;28;20586;-78
2022/11/18 10:53:03;;;;;;;15.63;8.47;;;16.00;78.60;;;;;;5067403;28;20195;-79
2022/11/18 10:55:31;;;;;;;15.37;8.30;;;16.00;78.80;;;;;;5063533;28;20213;-79
2022/11/18 10:58:07;;;;;;;18.17;9.57;;;16.10;78.90;;;;;;5067236;28;20277;-79
2022/11/18 11:00:44;;;;;;;18.80;9.27;;;16.20;79.10;;;;;;5065052;28;20194;-79
2022/11/18 11:03:35;;;;;;;15.13;8.50;;;16.20;78.50;;;;;;5065874;28;20190;-78
2022/11/18 11:06:31;;;;;;;17.77;8.83;;;16.40;79.00;;;;;;5068261;28;20201;-78
2022/11/18 11:09:07;;;;;;;14.57;8.67;;;16.40;77.10;;;;;;5062649;28;20195;-79
2022/11/18 11:11:38;;;;;;;13.80;8.57;;;16.50;76.90;;;;;;5072392;28;20202;-79
2022/11/18 11:14:19;;;;;;;19.33;8.50;;;16.50;77.20;;;;;;5064113;28;20202;-80
2022/11/18 11:16:58;;;;;;;15.17;7.87;;;16.50;76.80;;;;;;5066891;28;20284;-79
2022/11/18 11:19:40;;;;;;;14.30;8.57;;;16.50;77.20;;;;;;5069496;28;20194;-79
2022/11/18 11:22:12;;;;;;;14.33;7.33;;;16.60;76.90;;;;;;5034028;28;20202;-78
2022/11/18 11:24:42;;;;;;;17.37;8.77;;;16.60;76.70;;;;;;5067489;28;20245;-77
2022/11/18 11:27:42;;;;;;;15.70;9.20;;;16.60;77.00;;;;;;5065410;28;20190;-79
2022/11/18 11:30:37;;;;;;;17.63;9.07;;;16.70;76.40;;;;;;5065931;28;20222;-79
2022/11/18 11:33:22;;;;;;;19.90;8.70;;;16.80;76.50;;;;;;5066048;28;20197;-79
2022/11/18 11:36:03;;;;;;;16.60;8.33;;;16.70;73.90;;;;;;5069306;28;20327;-80
2022/11/18 11:38:43;;;;;;;15.43;8.37;;;16.70;74.00;;;;;;5063644;28;20223;-80
2022/11/18 11:41:21;;;;;;;13.67;7.57;;;16.70;75.40;;;;;;5073497;28;20191;-79
2022/11/18 11:44:26;;;;;;;14.43;8.10;;;16.70;76.20;;;;;;5067893;28;20202;-79
2022/11/18 11:50:14;;;;;;;16.83;7.70;;;16.70;76.90;;;;;;5069671;28;20202;-78
2022/11/18 11:52:53;;;;;;;14.47;8.00;;;16.70;77.10;;;;;;5068098;28;20190;-81
2022/11/18 11:55:28;;;;;;;16.50;7.87;;;16.70;76.90;;;;;;5070211;28;20244;-80
2022/11/18 11:58:11;;;;;;;16.40;9.02;;;16.70;76.90;;;;;;5067836;28;20443;-79
2022/11/18 12:00:45;;;;;;;16.97;7.97;;;16.70;76.90;;;;;;5062967;28;20626;-82
2022/11/18 12:03:33;;;;;;;19.83;8.53;;;16.60;77.70;;;;;;5064936;28;20186;-80
2022/11/18 12:06:01;;;;;;;16.00;7.87;;;16.60;76.90;;;;;;5062297;28;20556;-80
2022/11/18 12:08:32;;;;;;;19.23;8.10;;;16.50;76.80;;;;;;5068185;28;20700;-79
2022/11/18 12:11:06;;;;;;;15.43;8.53;;;16.50;77.00;;;;;;5065760;28;20238;-79
2022/11/18 12:13:43;;;;;;;16.03;8.00;;;16.50;77.30;;;;;;5065867;28;20223;-80
2022/11/18 12:16:20;;;;;;;14.20;7.30;;;16.50;77.20;;;;;;5062885;28;20222;-78
2022/11/18 12:18:55;;;;;;;17.60;7.83;;;16.40;77.40;;;;;;5060820;28;21680;-79
2022/11/18 12:21:54;;;;;;;21.13;9.07;;;16.40;77.40;;;;;;5067903;28;20224;-79
2022/11/18 12:24:33;;;;;;;16.93;8.00;;;16.30;77.20;;;;;;5060594;28;20238;-79
2022/11/18 12:27:03;;;;;;;13.77;7.43;;;16.30;77.60;;;;;;5068219;28;20678;-79
2022/11/18 12:29:43;;;;;;;15.07;7.77;;;16.30;77.40;;;;;;5067351;28;20225;-80
2022/11/18 12:32:33;;;;;;;21.37;8.57;;;16.20;77.60;;;;;;5061623;28;20259;-79
2022/11/18 12:35:05;;;;;;;13.27;7.20;;;16.10;77.80;;;;;;5069050;28;20194;-79
2022/11/18 12:37:58;;;;;;;16.07;8.40;;;16.10;78.90;;;;;;5066330;28;20222;-78
2022/11/18 12:40:38;;;;;;;18.30;8.13;;;16.10;78.00;;;;;;5067042;28;20198;-81
2022/11/18 12:45:59;;;;;;;16.53;7.80;;;16.00;78.50;;;;;;5061066;28;20203;-78
2022/11/18 12:48:39;;;;;;;18.73;8.30;;;16.00;78.30;;;;;;5059560;28;21392;-78
2022/11/18 12:51:39;;;;;;;15.30;8.50;;;16.00;78.60;;;;;;5067912;28;20210;-78
2022/11/18 12:54:25;;;;;;;17.33;7.83;;;16.00;78.70;;;;;;5057749;28;20274;-78
2022/11/18 12:56:55;;;;;;;16.43;8.27;;;15.90;78.70;;;;;;5043870;28;20202;-80
2022/11/18 12:59:31;;;;;;;20.50;8.57;;;16.00;78.90;;;;;;5067179;28;20222;-78
2022/11/18 13:02:21;;;;;;;17.53;8.27;;;15.90;78.80;;;;;;5059197;28;20198;-78
2022/11/18 13:05:10;;;;;;;18.47;8.50;;;15.90;79.00;;;;;;5066282;28;20221;-78
2022/11/18 13:10:35;;;;;;;16.07;9.13;;;15.90;79.30;;;;;;5062377;28;20211;-77
2022/11/18 13:13:03;;;;;;;15.67;9.70;;;15.90;79.20;;;;;;5067288;28;20214;-77
2022/11/18 13:18:20;;;;;;;19.20;9.10;;;16.00;79.50;;;;;;5067763;28;20198;-77
2022/11/18 13:20:57;;;;;;;18.53;9.63;;;15.90;79.20;;;;;;5068662;28;20195;-76
2022/11/18 13:26:23;;;;;;;16.97;8.10;;;15.90;79.50;;;;;;5059417;28;20558;-77
2022/11/18 13:29:22;;;;;;;23.30;10.67;;;15.90;79.50;;;;;;5061793;28;20251;-78
2022/11/18 13:32:03;;;;;;;20.47;9.90;;;15.90;79.70;;;;;;5065782;28;20222;-77
2022/11/18 13:34:43;;;;;;;20.57;9.50;;;15.90;79.80;;;;;;5067301;28;20229;-77
2022/11/18 13:37:17;;;;;;;22.47;9.93;;;15.80;79.80;;;;;;5064778;28;20265;-78